createdAt,value
2023-05-05T00:01:03.971Z,27.56
2023-05-05T00:02:04.036Z,27.54
2023-05-05T00:03:03.965Z,27.52
2023-05-05T00:04:03.953Z,27.54
2023-05-05T00:05:03.905Z,27.55
2023-05-05T00:06:03.897Z,27.53
2023-05-05T00:07:03.902Z,27.53
2023-05-05T00:08:03.874Z,27.54
2023-05-05T00:09:03.875Z,27.54
2023-05-05T00:10:03.837Z,27.52
2023-05-05T00:11:03.830Z,27.55
2023-05-05T00:12:03.812Z,27.52
2023-05-05T00:13:03.839Z,27.54
2023-05-05T00:14:03.787Z,27.52
2023-05-05T00:15:06.746Z,27.53
2023-05-05T00:16:03.759Z,27.55
2023-05-05T00:17:03.758Z,27.53
2023-05-05T00:18:03.773Z,27.52
2023-05-05T00:19:03.751Z,27.55
2023-05-05T00:20:03.733Z,27.54
2023-05-05T00:21:03.695Z,27.54
2023-05-05T00:22:03.700Z,27.53
2023-05-05T00:23:03.667Z,27.54
2023-05-05T00:24:03.659Z,27.55
2023-05-05T00:25:03.651Z,27.55
2023-05-05T00:26:03.646Z,27.53
2023-05-05T00:27:03.626Z,27.55
2023-05-05T00:28:03.625Z,27.52
2023-05-05T00:29:03.649Z,27.53
2023-05-05T00:30:03.587Z,27.53
2023-05-05T00:31:03.654Z,27.54
2023-05-05T00:32:03.602Z,27.54
2023-05-05T00:33:03.599Z,27.52
2023-05-05T00:34:03.550Z,27.53
2023-05-05T00:35:03.557Z,27.55
2023-05-05T00:36:03.571Z,27.56
2023-05-05T00:37:03.539Z,27.56
2023-05-05T00:38:03.621Z,27.55
2023-05-05T00:39:03.678Z,27.54
2023-05-05T00:40:03.757Z,27.57
2023-05-05T00:41:03.855Z,27.57
2023-05-05T00:42:03.843Z,27.55
2023-05-05T00:43:03.845Z,27.55
2023-05-05T00:44:03.821Z,27.55
2023-05-05T00:45:03.811Z,27.55
2023-05-05T00:46:03.872Z,27.57
2023-05-05T00:47:03.890Z,27.57
2023-05-05T00:48:03.904Z,27.57
2023-05-05T00:49:03.927Z,27.57
2023-05-05T00:50:03.877Z,27.56
2023-05-05T00:51:03.858Z,27.55
2023-05-05T00:52:03.844Z,27.58
2023-05-05T00:53:03.940Z,27.57
2023-05-05T00:54:04.002Z,27.57
2023-05-05T00:55:04.095Z,27.61
2023-05-05T00:56:04.183Z,27.59
2023-05-05T00:57:04.293Z,27.59
2023-05-05T00:58:04.468Z,27.57
2023-05-05T00:59:04.341Z,27.59
2023-05-05T01:00:04.345Z,27.59
2023-05-05T01:01:04.332Z,27.59
2023-05-05T01:02:04.401Z,27.60
2023-05-05T01:03:04.397Z,27.61
2023-05-05T01:04:04.390Z,27.59
2023-05-05T01:05:04.296Z,27.59
2023-05-05T01:06:04.383Z,27.61
2023-05-05T01:07:04.474Z,27.63
2023-05-05T01:08:04.548Z,27.60
2023-05-05T01:09:04.551Z,27.61
2023-05-05T01:10:18.981Z,27.60
2023-05-05T01:11:05.521Z,27.62
2023-05-05T01:12:04.531Z,27.60
2023-05-05T01:13:04.530Z,27.61
2023-05-05T01:14:04.485Z,27.59
2023-05-05T01:15:04.468Z,27.57
2023-05-05T01:16:04.475Z,27.62
2023-05-05T01:17:04.441Z,27.60
2023-05-05T01:18:04.494Z,27.61
2023-05-05T01:19:04.430Z,27.61
2023-05-05T01:20:04.395Z,27.61
2023-05-05T01:21:04.387Z,27.62
2023-05-05T01:22:04.371Z,27.60
2023-05-05T01:23:04.367Z,27.62
2023-05-05T01:24:04.347Z,27.60
2023-05-05T01:25:04.323Z,27.63
2023-05-05T01:26:04.306Z,27.61
2023-05-05T01:27:04.290Z,27.59
2023-05-05T01:28:04.269Z,27.60
2023-05-05T01:29:04.246Z,27.61
2023-05-05T01:30:04.240Z,27.63
2023-05-05T01:31:04.248Z,27.62
2023-05-05T01:32:04.278Z,27.60
2023-05-05T01:33:04.216Z,27.63
2023-05-05T01:34:04.205Z,27.62
2023-05-05T01:35:04.208Z,27.60
2023-05-05T01:36:04.191Z,27.61
2023-05-05T01:37:04.188Z,27.62
2023-05-05T01:38:04.188Z,27.63
2023-05-05T01:39:04.172Z,27.61
2023-05-05T01:40:04.304Z,27.62
2023-05-05T01:41:04.211Z,27.63
2023-05-05T01:42:04.184Z,27.64
2023-05-05T01:43:04.201Z,27.65
2023-05-05T01:44:04.181Z,27.63
2023-05-05T01:45:04.171Z,27.64
2023-05-05T01:46:04.206Z,27.65
2023-05-05T01:47:04.149Z,27.64
2023-05-05T01:48:04.183Z,27.65
2023-05-05T01:49:04.115Z,27.65
2023-05-05T01:50:04.130Z,27.65
2023-05-05T01:51:04.110Z,27.65
2023-05-05T01:52:04.093Z,27.64
2023-05-05T01:53:04.098Z,27.64
2023-05-05T01:54:04.059Z,27.65
2023-05-05T01:55:04.055Z,27.67
2023-05-05T01:56:04.024Z,27.64
2023-05-05T01:57:04.002Z,27.65
2023-05-05T01:58:04.024Z,27.65
2023-05-05T01:59:04.016Z,27.66
2023-05-05T02:00:03.991Z,27.65
2023-05-05T02:01:04.037Z,27.68
2023-05-05T02:02:04.030Z,27.65
2023-05-05T02:03:04.111Z,27.65
2023-05-05T02:04:04.050Z,27.66
2023-05-05T02:05:04.082Z,27.66
2023-05-05T02:06:04.136Z,27.67
2023-05-05T02:07:04.202Z,27.66
2023-05-05T02:08:04.220Z,27.67
2023-05-05T02:09:04.253Z,27.68
2023-05-05T02:10:04.332Z,27.67
2023-05-05T02:11:04.332Z,27.68
2023-05-05T02:12:04.380Z,27.68
2023-05-05T02:13:04.575Z,27.67
2023-05-05T02:14:04.525Z,27.68
2023-05-05T02:15:04.536Z,27.67
2023-05-05T02:16:04.643Z,27.68
2023-05-05T02:17:04.655Z,27.67
2023-05-05T02:18:04.743Z,27.65
2023-05-05T02:19:04.749Z,27.67
2023-05-05T02:20:04.780Z,27.65
2023-05-05T02:21:04.838Z,27.66
2023-05-05T02:22:04.922Z,27.67
2023-05-05T02:23:05.037Z,27.66
2023-05-05T02:24:05.038Z,27.68
2023-05-05T02:25:05.037Z,27.68
2023-05-05T02:26:05.020Z,27.70
2023-05-05T02:27:05.026Z,27.68
2023-05-05T02:28:05.045Z,27.69
2023-05-05T02:29:05.102Z,27.68
2023-05-05T02:30:05.266Z,27.70
2023-05-05T02:31:05.208Z,27.70
2023-05-05T02:32:05.192Z,27.69
2023-05-05T02:33:05.272Z,27.71
2023-05-05T02:34:05.190Z,27.69
2023-05-05T02:35:05.200Z,27.69
2023-05-05T02:36:05.268Z,27.69
2023-05-05T02:37:05.266Z,27.68
2023-05-05T02:38:05.267Z,27.69
2023-05-05T02:39:05.265Z,27.69
2023-05-05T02:40:05.301Z,27.68
2023-05-05T02:41:05.261Z,27.71
2023-05-05T02:42:05.323Z,27.69
2023-05-05T02:43:05.551Z,27.69
2023-05-05T02:44:05.529Z,27.68
2023-05-05T02:45:05.632Z,27.70
2023-05-05T02:46:05.724Z,27.72
2023-05-05T02:47:05.738Z,27.61
2023-05-05T02:48:05.828Z,27.51
2023-05-05T02:49:05.744Z,27.43
2023-05-05T02:50:05.901Z,27.40
2023-05-05T02:51:05.753Z,27.03
2023-05-05T02:52:05.758Z,26.85
2023-05-05T02:53:05.778Z,26.58
2023-05-05T02:54:05.787Z,26.61
2023-05-05T02:55:05.788Z,26.47
2023-05-05T02:56:05.789Z,26.46
2023-05-05T02:57:05.829Z,26.40
2023-05-05T02:58:05.831Z,26.28
2023-05-05T02:59:05.865Z,26.20
2023-05-05T03:00:06.347Z,26.13
2023-05-05T03:01:05.962Z,26.22
2023-05-05T03:02:05.966Z,26.12
2023-05-05T03:03:06.092Z,26.01
2023-05-05T03:04:06.042Z,26.04
2023-05-05T03:05:06.097Z,26.00
2023-05-05T03:06:06.128Z,25.98
2023-05-05T03:07:06.185Z,25.94
2023-05-05T03:08:06.251Z,25.89
2023-05-05T03:09:06.293Z,25.75
2023-05-05T03:10:06.570Z,25.86
2023-05-05T03:11:06.395Z,25.81
2023-05-05T03:12:06.444Z,25.83
2023-05-05T03:13:06.536Z,25.77
2023-05-05T03:14:06.547Z,25.82
2023-05-05T03:15:06.614Z,25.72
2023-05-05T03:16:06.781Z,25.79
2023-05-05T03:17:06.720Z,25.69
2023-05-05T03:18:06.824Z,25.65
2023-05-05T03:19:06.871Z,25.66
2023-05-05T03:20:07.120Z,25.78
2023-05-05T03:21:06.977Z,25.71
2023-05-05T03:22:07.012Z,25.63
2023-05-05T03:23:07.083Z,25.64
2023-05-05T03:24:07.159Z,25.60
2023-05-05T03:25:07.163Z,25.54
2023-05-05T03:26:07.170Z,25.55
2023-05-05T03:27:07.193Z,25.59
2023-05-05T03:28:07.241Z,25.59
2023-05-05T03:29:07.266Z,25.56
2023-05-05T03:30:07.489Z,25.60
2023-05-05T03:31:07.280Z,25.51
2023-05-05T03:32:07.388Z,25.54
2023-05-05T03:33:07.322Z,25.52
2023-05-05T03:34:07.227Z,25.53
2023-05-05T03:35:07.206Z,25.53
2023-05-05T03:36:07.209Z,25.53
2023-05-05T03:37:07.220Z,25.56
2023-05-05T03:38:07.200Z,25.47
2023-05-05T03:39:07.175Z,25.48
2023-05-05T03:40:07.417Z,25.44
2023-05-05T03:41:07.155Z,25.51
2023-05-05T03:42:07.163Z,25.39
2023-05-05T03:43:07.164Z,25.39
2023-05-05T03:44:07.139Z,25.41
2023-05-05T03:45:07.143Z,25.42
2023-05-05T03:46:07.160Z,25.38
2023-05-05T03:47:07.128Z,25.47
2023-05-05T03:48:07.200Z,25.38
2023-05-05T03:49:07.132Z,25.40
2023-05-05T03:50:07.279Z,25.42
2023-05-05T03:51:07.116Z,25.38
2023-05-05T03:52:07.139Z,25.41
2023-05-05T03:53:07.127Z,25.32
2023-05-05T03:54:07.120Z,25.26
2023-05-05T03:55:07.136Z,25.32
2023-05-05T03:56:07.230Z,25.31
2023-05-05T03:57:07.111Z,25.33
2023-05-05T03:58:07.111Z,25.32
2023-05-05T03:59:07.110Z,25.28
2023-05-05T04:00:07.260Z,25.31
2023-05-05T04:01:07.104Z,25.37
2023-05-05T04:02:07.132Z,25.34
2023-05-05T04:03:07.385Z,25.31
2023-05-05T04:04:07.134Z,25.30
2023-05-05T04:05:07.097Z,25.33
2023-05-05T04:06:07.088Z,25.31
2023-05-05T04:07:07.100Z,25.31
2023-05-05T04:08:07.105Z,25.36
2023-05-05T04:09:07.085Z,25.28
2023-05-05T04:10:07.353Z,25.33
2023-05-05T04:11:07.086Z,25.28
2023-05-05T04:12:07.080Z,25.33
2023-05-05T04:13:07.112Z,25.34
2023-05-05T04:14:07.083Z,25.32
2023-05-05T04:15:07.120Z,25.33
2023-05-05T04:16:07.162Z,25.37
2023-05-05T04:17:07.171Z,25.43
2023-05-05T04:18:07.236Z,25.34
2023-05-05T04:19:07.212Z,25.33
2023-05-05T04:20:07.450Z,25.33
2023-05-05T04:21:07.272Z,25.47
2023-05-05T04:22:07.296Z,25.39
2023-05-05T04:23:07.337Z,25.37
2023-05-05T04:24:07.331Z,25.37
2023-05-05T04:25:07.381Z,25.37
2023-05-05T04:26:07.394Z,25.34
2023-05-05T04:27:07.442Z,25.42
2023-05-05T04:28:07.471Z,25.40
2023-05-05T04:29:07.489Z,25.41
2023-05-05T04:30:07.724Z,25.47
2023-05-05T04:31:07.568Z,25.43
2023-05-05T04:32:07.619Z,25.49
2023-05-05T04:33:07.605Z,25.49
2023-05-05T04:34:07.637Z,25.43
2023-05-05T04:35:07.654Z,25.40
2023-05-05T04:36:07.674Z,25.49
2023-05-05T04:37:07.703Z,25.49
2023-05-05T04:38:07.834Z,25.44
2023-05-05T04:39:07.863Z,25.46
2023-05-05T04:40:07.975Z,25.46
2023-05-05T04:41:07.868Z,25.50
2023-05-05T04:42:07.858Z,25.53
2023-05-05T04:43:07.910Z,25.51
2023-05-05T04:44:07.947Z,25.59
2023-05-05T04:45:07.955Z,25.51
2023-05-05T04:46:08.004Z,25.48
2023-05-05T04:47:08.028Z,25.55
2023-05-05T04:48:08.158Z,25.58
2023-05-05T04:49:08.104Z,25.49
2023-05-05T04:50:08.329Z,25.56
2023-05-05T04:51:08.175Z,25.50
2023-05-05T04:52:08.196Z,25.60
2023-05-05T04:53:08.246Z,25.57
2023-05-05T04:54:08.269Z,25.54
2023-05-05T04:55:08.306Z,25.60
2023-05-05T04:56:08.364Z,25.61
2023-05-05T04:57:08.378Z,25.63
2023-05-05T04:58:08.431Z,25.62
2023-05-05T04:59:08.450Z,25.63
2023-05-05T05:00:08.662Z,25.79
2023-05-05T05:01:08.506Z,25.95
2023-05-05T05:02:08.557Z,26.26
2023-05-05T05:03:08.662Z,26.66
2023-05-05T05:04:08.642Z,26.84
2023-05-05T05:05:08.666Z,26.74
2023-05-05T05:06:08.688Z,26.81
2023-05-05T05:07:08.707Z,26.60
2023-05-05T05:08:08.711Z,26.44
2023-05-05T05:09:08.776Z,26.34
2023-05-05T05:10:08.932Z,26.33
2023-05-05T05:11:08.761Z,26.29
2023-05-05T05:12:08.765Z,26.27
2023-05-05T05:13:10.090Z,26.31
2023-05-05T05:14:08.791Z,26.27
2023-05-05T05:15:08.808Z,26.35
2023-05-05T05:16:08.846Z,26.28
2023-05-05T05:17:08.845Z,26.24
2023-05-05T05:18:08.861Z,26.22
2023-05-05T05:19:08.858Z,26.25
2023-05-05T05:20:09.199Z,26.26
2023-05-05T05:21:08.874Z,26.22
2023-05-05T05:22:08.865Z,26.20
2023-05-05T05:23:08.883Z,26.24
2023-05-05T05:24:08.853Z,26.19
2023-05-05T05:25:08.854Z,26.18
2023-05-05T05:26:08.841Z,26.20
2023-05-05T05:27:10.127Z,26.20
2023-05-05T05:28:10.612Z,26.18
2023-05-05T05:29:08.854Z,26.19
2023-05-05T05:30:09.007Z,26.19
2023-05-05T05:31:08.828Z,26.36
2023-05-05T05:32:08.928Z,26.45
2023-05-05T05:33:08.887Z,27.46
2023-05-05T05:34:10.273Z,27.63
2023-05-05T05:35:08.910Z,27.80
2023-05-05T05:36:08.879Z,27.80
2023-05-05T05:37:08.873Z,27.44
2023-05-05T05:38:08.886Z,26.71
2023-05-05T05:39:08.877Z,26.36
2023-05-05T05:40:09.025Z,26.53
2023-05-05T05:41:08.890Z,27.43
2023-05-05T05:42:08.924Z,27.32
2023-05-05T05:43:08.947Z,27.61
2023-05-05T05:44:08.975Z,27.54
2023-05-05T05:45:09.001Z,27.29
2023-05-05T05:46:09.473Z,27.52
2023-05-05T05:47:09.153Z,27.54
2023-05-05T05:48:09.244Z,26.79
2023-05-05T05:49:09.083Z,27.22
2023-05-05T05:50:09.309Z,27.34
2023-05-05T05:51:09.058Z,27.32
2023-05-05T05:52:09.144Z,26.84
2023-05-05T05:53:09.057Z,26.75
2023-05-05T05:54:09.075Z,26.40
2023-05-05T05:55:09.088Z,26.25
2023-05-05T05:56:09.108Z,26.16
2023-05-05T05:57:09.094Z,26.06
2023-05-05T05:58:09.074Z,26.07
2023-05-05T05:59:09.113Z,26.41
2023-05-05T06:00:09.398Z,26.14
2023-05-05T06:01:09.186Z,26.00
2023-05-05T06:02:09.195Z,25.97
2023-05-05T06:03:09.302Z,25.80
2023-05-05T06:04:09.292Z,25.77
2023-05-05T06:05:09.204Z,25.97
2023-05-05T06:06:09.201Z,25.82
2023-05-05T06:07:09.200Z,25.93
2023-05-05T06:08:09.213Z,26.09
2023-05-05T06:09:09.268Z,25.96
2023-05-05T06:10:25.809Z,25.97
2023-05-05T06:11:10.230Z,26.00
2023-05-05T06:12:09.272Z,25.99
2023-05-05T06:13:09.351Z,25.89
2023-05-05T06:14:09.242Z,25.99
2023-05-05T06:15:09.234Z,26.05
2023-05-05T06:16:09.407Z,26.01
2023-05-05T06:17:09.245Z,26.09
2023-05-05T06:18:09.251Z,26.02
2023-05-05T06:19:09.327Z,26.26
2023-05-05T06:20:09.597Z,26.24
2023-05-05T06:21:09.415Z,26.13
2023-05-05T06:22:09.473Z,26.27
2023-05-05T06:23:09.411Z,26.52
2023-05-05T06:24:09.444Z,26.46
2023-05-05T06:25:09.467Z,26.43
2023-05-05T06:26:09.452Z,26.36
2023-05-05T06:27:09.460Z,26.49
2023-05-05T06:28:09.444Z,26.45
2023-05-05T06:29:11.710Z,26.56
2023-05-05T06:30:09.829Z,26.59
2023-05-05T06:31:09.488Z,26.61
2023-05-05T06:32:09.538Z,26.84
2023-05-05T06:33:09.499Z,27.07
2023-05-05T06:34:09.462Z,27.20
2023-05-05T06:35:09.475Z,27.28
2023-05-05T06:36:09.587Z,27.41
2023-05-05T06:37:09.501Z,27.66
2023-05-05T06:38:09.507Z,28.00
2023-05-05T06:39:09.495Z,27.90
2023-05-05T06:40:09.627Z,28.07
2023-05-05T06:41:09.509Z,28.16
2023-05-05T06:42:09.530Z,28.37
2023-05-05T06:43:09.526Z,28.72
2023-05-05T06:44:09.524Z,29.02
2023-05-05T06:45:09.539Z,28.96
2023-05-05T06:46:09.513Z,29.17
2023-05-05T06:47:09.526Z,28.87
2023-05-05T06:48:09.651Z,29.04
2023-05-05T06:49:09.524Z,28.86
2023-05-05T06:50:09.852Z,28.75
2023-05-05T06:51:09.550Z,28.96
2023-05-05T06:52:09.578Z,28.82
2023-05-05T06:53:09.628Z,28.66
2023-05-05T06:54:09.716Z,28.80
2023-05-05T06:55:09.835Z,28.79
2023-05-05T06:56:09.784Z,28.78
2023-05-05T06:57:09.858Z,28.62
2023-05-05T06:58:09.881Z,28.81
2023-05-05T06:59:09.946Z,28.58
2023-05-05T07:00:10.074Z,28.50
2023-05-05T07:01:10.101Z,28.58
2023-05-05T07:02:10.108Z,28.54
2023-05-05T07:03:10.141Z,28.88
2023-05-05T07:04:10.483Z,28.63
2023-05-05T07:05:10.148Z,28.49
2023-05-05T07:06:10.123Z,28.43
2023-05-05T07:07:10.104Z,28.55
2023-05-05T07:08:10.115Z,28.50
2023-05-05T07:09:10.116Z,28.46
2023-05-05T07:10:10.214Z,28.48
2023-05-05T07:11:10.096Z,28.60
2023-05-05T07:12:10.167Z,28.64
2023-05-05T07:13:10.250Z,28.66
2023-05-05T07:14:10.256Z,28.64
2023-05-05T07:15:23.279Z,28.54
2023-05-05T07:16:11.294Z,28.58
2023-05-05T07:17:10.305Z,28.74
2023-05-05T07:18:10.362Z,28.68
2023-05-05T07:19:10.304Z,28.66
2023-05-05T07:20:10.706Z,28.95
2023-05-05T07:21:10.300Z,28.86
2023-05-05T07:22:10.264Z,28.94
2023-05-05T07:23:10.265Z,28.79
2023-05-05T07:24:10.273Z,28.87
2023-05-05T07:25:10.263Z,29.17
2023-05-05T07:26:10.246Z,29.05
2023-05-05T07:27:10.280Z,29.07
2023-05-05T07:28:10.312Z,28.85
2023-05-05T07:29:10.356Z,29.20
2023-05-05T07:30:14.004Z,29.18
2023-05-05T07:31:11.404Z,29.28
2023-05-05T07:32:10.511Z,29.14
2023-05-05T07:33:10.460Z,29.12
2023-05-05T07:34:10.405Z,29.19
2023-05-05T07:35:10.408Z,29.10
2023-05-05T07:36:10.534Z,29.20
2023-05-05T07:37:10.404Z,29.19
2023-05-05T07:38:10.966Z,29.35
2023-05-05T07:39:10.424Z,29.33
2023-05-05T07:40:10.607Z,29.47
2023-05-05T07:41:10.399Z,29.81
2023-05-05T07:42:10.385Z,29.91
2023-05-05T07:43:10.369Z,29.99
2023-05-05T07:44:10.375Z,29.43
2023-05-05T07:45:10.364Z,29.24
2023-05-05T07:46:10.378Z,29.40
2023-05-05T07:47:10.348Z,29.27
2023-05-05T07:48:10.352Z,29.08
2023-05-05T07:49:10.365Z,28.95
2023-05-05T07:50:10.613Z,28.97
2023-05-05T07:51:10.290Z,28.81
2023-05-05T07:52:10.351Z,28.60
2023-05-05T07:53:14.782Z,28.59
2023-05-05T07:54:10.274Z,28.63
2023-05-05T07:55:10.289Z,28.62
2023-05-05T07:56:10.247Z,28.62
2023-05-05T07:57:10.265Z,28.65
2023-05-05T07:58:10.241Z,28.49
2023-05-05T07:59:10.236Z,28.71
2023-05-05T08:00:10.407Z,28.72
2023-05-05T08:01:10.215Z,28.63
2023-05-05T08:02:10.221Z,28.79
2023-05-05T08:03:11.928Z,28.80
2023-05-05T08:04:10.304Z,28.73
2023-05-05T08:05:10.312Z,28.81
2023-05-05T08:06:10.206Z,28.69
2023-05-05T08:07:10.216Z,28.76
2023-05-05T08:08:10.318Z,28.73
2023-05-05T08:09:10.398Z,28.45
2023-05-05T08:10:10.397Z,28.40
2023-05-05T08:11:10.447Z,28.27
2023-05-05T08:12:10.504Z,27.73
2023-05-05T08:13:10.611Z,27.51
2023-05-05T08:14:10.636Z,27.50
2023-05-05T08:15:10.885Z,27.71
2023-05-05T08:16:10.699Z,27.48
2023-05-05T08:17:11.150Z,27.51
2023-05-05T08:18:10.667Z,27.71
2023-05-05T08:19:25.041Z,27.64
2023-05-05T08:20:11.677Z,27.53
2023-05-05T08:21:10.654Z,27.69
2023-05-05T08:22:10.650Z,28.09
2023-05-05T08:23:10.624Z,28.37
2023-05-05T08:24:10.704Z,28.22
2023-05-05T08:25:10.603Z,28.34
2023-05-05T08:26:10.612Z,28.36
2023-05-05T08:27:10.594Z,28.52
2023-05-05T08:28:10.585Z,28.50
2023-05-05T08:29:10.666Z,28.65
2023-05-05T08:30:10.609Z,28.39
2023-05-05T08:31:10.705Z,28.72
2023-05-05T08:32:10.743Z,28.63
2023-05-05T08:33:10.811Z,28.55
2023-05-05T08:34:10.862Z,27.98
2023-05-05T08:35:11.279Z,27.17
2023-05-05T08:36:10.918Z,26.85
2023-05-05T08:37:10.992Z,26.95
2023-05-05T08:38:11.045Z,26.87
2023-05-05T08:39:11.146Z,26.95
2023-05-05T08:40:11.265Z,27.04
2023-05-05T08:41:11.216Z,26.90
2023-05-05T08:42:11.245Z,26.85
2023-05-05T08:43:11.211Z,26.80
2023-05-05T08:44:11.242Z,26.63
2023-05-05T08:45:11.620Z,26.57
2023-05-05T08:46:11.201Z,26.54
2023-05-05T08:47:11.247Z,26.64
2023-05-05T08:48:11.242Z,26.70
2023-05-05T08:49:11.171Z,26.69
2023-05-05T08:50:11.167Z,26.63
2023-05-05T08:51:11.124Z,26.64
2023-05-05T08:52:11.178Z,26.69
2023-05-05T08:53:11.126Z,26.73
2023-05-05T08:54:11.130Z,26.77
2023-05-05T08:55:11.106Z,26.79
2023-05-05T08:56:11.273Z,26.85
2023-05-05T08:57:11.113Z,26.70
2023-05-05T08:58:11.118Z,26.88
2023-05-05T08:59:11.130Z,26.84
2023-05-05T09:00:11.127Z,26.97
2023-05-05T09:01:11.162Z,26.93
2023-05-05T09:02:11.128Z,26.97
2023-05-05T09:03:11.221Z,26.99
2023-05-05T09:04:11.200Z,26.97
2023-05-05T09:05:11.347Z,26.99
2023-05-05T09:06:11.299Z,26.97
2023-05-05T09:07:11.342Z,27.08
2023-05-05T09:08:11.391Z,27.01
2023-05-05T09:09:11.503Z,27.04
2023-05-05T09:10:11.501Z,27.01
2023-05-05T09:11:11.531Z,27.02
2023-05-05T09:12:11.519Z,26.93
2023-05-05T09:13:11.630Z,26.84
2023-05-05T09:14:11.626Z,26.87
2023-05-05T09:15:11.670Z,26.58
2023-05-05T09:16:11.712Z,26.65
2023-05-05T09:17:11.702Z,26.69
2023-05-05T09:18:11.738Z,26.65
2023-05-05T09:19:11.771Z,26.62
2023-05-05T09:20:11.832Z,26.60
2023-05-05T09:21:11.813Z,26.74
2023-05-05T09:22:11.821Z,26.70
2023-05-05T09:23:11.808Z,26.62
2023-05-05T09:24:11.799Z,26.57
2023-05-05T09:25:11.795Z,26.58
2023-05-05T09:26:11.781Z,26.58
2023-05-05T09:27:11.752Z,26.57
2023-05-05T09:28:11.834Z,26.60
2023-05-05T09:29:11.739Z,26.64
2023-05-05T09:30:11.739Z,26.60
2023-05-05T09:31:11.816Z,26.54
2023-05-05T09:32:11.696Z,26.66
2023-05-05T09:33:11.762Z,26.67
2023-05-05T09:34:11.723Z,26.63
2023-05-05T09:35:11.688Z,26.55
2023-05-05T09:36:11.682Z,26.60
2023-05-05T09:37:11.687Z,26.60
2023-05-05T09:38:11.679Z,26.46
2023-05-05T09:39:11.662Z,26.55
2023-05-05T09:40:11.639Z,26.54
2023-05-05T09:41:11.634Z,26.48
2023-05-05T09:42:11.625Z,27.29
2023-05-05T09:43:11.603Z,27.43
2023-05-05T09:44:11.623Z,27.76
2023-05-05T09:45:11.618Z,28.57
2023-05-05T09:46:11.583Z,27.97
2023-05-05T09:47:25.916Z,28.63
2023-05-05T09:48:12.608Z,29.27
2023-05-05T09:49:11.519Z,29.58
2023-05-05T09:50:11.525Z,29.86
2023-05-05T09:51:11.541Z,29.87
2023-05-05T09:52:11.563Z,29.88
2023-05-05T09:53:11.479Z,29.99
2023-05-05T09:54:11.491Z,30.02
2023-05-05T09:55:11.485Z,29.81
2023-05-05T09:56:11.427Z,29.78
2023-05-05T09:57:11.552Z,29.87
2023-05-05T09:58:11.507Z,29.81
2023-05-05T09:59:11.409Z,29.30
2023-05-05T10:00:11.659Z,29.35
2023-05-05T10:01:11.389Z,29.42
2023-05-05T10:02:11.433Z,29.47
2023-05-05T10:03:11.401Z,29.53
2023-05-05T10:04:11.360Z,29.79
2023-05-05T10:05:11.566Z,29.93
2023-05-05T10:06:11.284Z,30.11
2023-05-05T10:07:11.300Z,30.24
2023-05-05T10:08:11.301Z,30.31
2023-05-05T10:09:11.251Z,30.49
2023-05-05T10:10:11.541Z,30.64
2023-05-05T10:11:11.269Z,30.71
2023-05-05T10:12:11.215Z,30.69
2023-05-05T10:13:11.451Z,30.77
2023-05-05T10:14:11.188Z,30.81
2023-05-05T10:15:11.208Z,30.78
2023-05-05T10:16:11.288Z,30.81
2023-05-05T10:17:11.150Z,30.85
2023-05-05T10:18:11.216Z,30.85
2023-05-05T10:19:11.146Z,30.88
2023-05-05T10:20:11.149Z,30.91
2023-05-05T10:21:11.188Z,30.95
2023-05-05T10:22:11.109Z,30.96
2023-05-05T10:23:11.085Z,31.15
2023-05-05T10:24:11.099Z,31.05
2023-05-05T10:25:11.072Z,31.09
2023-05-05T10:26:11.055Z,31.13
2023-05-05T10:27:12.624Z,31.17
2023-05-05T10:28:11.018Z,31.17
2023-05-05T10:29:11.005Z,31.34
2023-05-05T10:30:11.067Z,31.31
2023-05-05T10:31:24.517Z,31.28
2023-05-05T10:32:33.487Z,31.19
2023-05-05T10:33:30.418Z,31.22
2023-05-05T10:34:12.086Z,31.22
2023-05-05T10:35:10.868Z,31.32
2023-05-05T10:36:10.832Z,30.95
2023-05-05T10:37:10.833Z,30.55
2023-05-05T10:38:10.785Z,27.79
2023-05-05T10:39:10.813Z,26.10
2023-05-05T10:40:11.001Z,25.50
2023-05-05T10:41:10.730Z,25.60
2023-05-05T10:42:10.869Z,26.01
2023-05-05T10:43:10.695Z,25.99
2023-05-05T10:44:10.657Z,26.03
2023-05-05T10:45:10.731Z,26.18
2023-05-05T10:46:10.632Z,26.10
2023-05-05T10:47:10.566Z,26.05
2023-05-05T10:48:10.829Z,26.15
2023-05-05T10:49:12.481Z,26.23
2023-05-05T10:50:10.672Z,25.90
2023-05-05T10:51:10.493Z,26.12
2023-05-05T10:52:10.425Z,25.93
2023-05-05T10:53:10.427Z,25.14
2023-05-05T10:54:10.484Z,24.85
2023-05-05T10:55:10.376Z,24.65
2023-05-05T10:56:10.339Z,24.91
2023-05-05T10:57:10.482Z,24.65
2023-05-05T10:58:10.288Z,24.88
2023-05-05T10:59:10.261Z,25.01
2023-05-05T11:00:10.358Z,24.96
2023-05-05T11:01:10.371Z,25.00
2023-05-05T11:02:10.184Z,24.80
2023-05-05T11:03:10.248Z,24.98
2023-05-05T11:04:10.296Z,24.46
2023-05-05T11:05:10.141Z,24.94
2023-05-05T11:06:10.099Z,24.86
2023-05-05T11:07:13.806Z,24.94
2023-05-05T11:08:10.037Z,24.93
2023-05-05T11:09:10.016Z,24.66
2023-05-05T11:10:10.248Z,24.30
2023-05-05T11:11:09.938Z,24.10
2023-05-05T11:12:09.913Z,24.22
2023-05-05T11:13:09.920Z,24.13
2023-05-05T11:14:09.863Z,24.21
2023-05-05T11:15:09.848Z,24.37
2023-05-05T11:16:09.811Z,24.51
2023-05-05T11:17:09.758Z,24.53
2023-05-05T11:18:09.786Z,24.40
2023-05-05T11:19:09.709Z,23.73
2023-05-05T11:20:09.996Z,23.97
2023-05-05T11:21:09.627Z,23.90
2023-05-05T11:22:09.604Z,24.26
2023-05-05T11:23:09.563Z,24.51
2023-05-05T11:24:09.529Z,24.41
2023-05-05T11:25:09.502Z,24.12
2023-05-05T11:26:09.548Z,23.80
2023-05-05T11:27:09.490Z,23.85
2023-05-05T11:28:09.398Z,24.03
2023-05-05T11:29:09.377Z,24.07
2023-05-05T11:30:09.577Z,23.92
2023-05-05T11:31:09.324Z,23.68
2023-05-05T11:32:09.287Z,23.48
2023-05-05T11:33:09.248Z,23.55
2023-05-05T11:34:09.229Z,23.46
2023-05-05T11:35:09.238Z,23.39
2023-05-05T11:36:09.254Z,23.33
2023-05-05T11:37:09.176Z,23.20
2023-05-05T11:38:09.154Z,23.24
2023-05-05T11:39:09.154Z,23.28
2023-05-05T11:40:09.320Z,23.30
2023-05-05T11:41:09.125Z,23.26
2023-05-05T11:42:10.644Z,23.24
2023-05-05T11:43:09.109Z,23.36
2023-05-05T11:44:09.098Z,23.36
2023-05-05T11:45:09.113Z,23.34
2023-05-05T11:46:09.090Z,23.35
2023-05-05T11:47:09.049Z,23.39
2023-05-05T11:48:09.092Z,23.46
2023-05-05T11:49:09.037Z,23.49
2023-05-05T11:50:09.182Z,23.54
2023-05-05T11:51:09.028Z,23.50
2023-05-05T11:52:09.065Z,23.47
2023-05-05T11:53:09.010Z,23.47
2023-05-05T11:54:09.029Z,23.44
2023-05-05T11:55:09.076Z,23.43
2023-05-05T11:56:08.996Z,23.44
2023-05-05T11:57:09.027Z,23.42
2023-05-05T11:58:08.972Z,23.43
2023-05-05T11:59:08.979Z,23.46
2023-05-05T12:00:09.135Z,23.47
2023-05-05T12:01:09.000Z,23.48
2023-05-05T12:02:09.026Z,23.48
2023-05-05T12:03:09.179Z,23.49
2023-05-05T12:04:09.054Z,23.47
2023-05-05T12:05:09.070Z,23.47
2023-05-05T12:06:08.992Z,23.49
2023-05-05T12:07:08.973Z,23.49
2023-05-05T12:08:09.117Z,23.55
2023-05-05T12:09:08.978Z,23.56
2023-05-05T12:10:09.198Z,23.57
2023-05-05T12:11:08.909Z,23.57
2023-05-05T12:12:08.822Z,23.63
2023-05-05T12:13:08.842Z,23.65
2023-05-05T12:14:09.018Z,23.58
2023-05-05T12:15:08.817Z,23.63
2023-05-05T12:16:08.784Z,23.65
2023-05-05T12:17:08.784Z,23.64
2023-05-05T12:18:08.800Z,23.61
2023-05-05T12:19:08.715Z,23.45
2023-05-05T12:20:09.074Z,23.59
2023-05-05T12:21:08.676Z,23.62
2023-05-05T12:22:08.644Z,23.57
2023-05-05T12:23:08.639Z,23.55
2023-05-05T12:24:08.673Z,23.48
2023-05-05T12:25:08.598Z,23.56
2023-05-05T12:26:08.555Z,23.52
2023-05-05T12:27:08.539Z,23.47
2023-05-05T12:28:08.543Z,23.50
2023-05-05T12:29:08.511Z,23.50
2023-05-05T12:30:08.672Z,23.47
2023-05-05T12:31:08.527Z,23.44
2023-05-05T12:32:08.492Z,23.46
2023-05-05T12:33:08.463Z,23.45
2023-05-05T12:34:08.404Z,23.44
2023-05-05T12:35:08.376Z,23.47
2023-05-05T12:36:08.364Z,23.45
2023-05-05T12:37:08.359Z,23.48
2023-05-05T12:38:08.327Z,23.48
2023-05-05T12:39:08.341Z,23.48
2023-05-05T12:40:08.412Z,23.50
2023-05-05T12:41:08.249Z,23.50
2023-05-05T12:42:08.202Z,23.52
2023-05-05T12:43:08.190Z,23.56
2023-05-05T12:44:08.163Z,23.57
2023-05-05T12:45:08.190Z,23.62
2023-05-05T12:46:08.200Z,23.65
2023-05-05T12:47:08.105Z,23.63
2023-05-05T12:48:08.024Z,23.59
2023-05-05T12:49:07.990Z,23.58
2023-05-05T12:50:08.150Z,23.57
2023-05-05T12:51:08.021Z,23.61
2023-05-05T12:52:07.912Z,23.56
2023-05-05T12:53:07.916Z,23.52